sensor_id;sensor_type;location;lat;lon;timestamp;pressure;altitude;pressure_sealevel;temperature;humidity
81937;BME280;71432;56.558;9.036;2024-01-16T00:00:06;99997.00;;;22.28;38.04
81937;BME280;71432;56.558;9.036;2024-01-16T00:02:33;100016.75;;;22.32;38.21
81937;BME280;71432;56.558;9.036;2024-01-16T00:04:59;100014.47;;;22.29;37.91
81937;BME280;71432;56.558;9.036;2024-01-16T00:07:24;100013.47;;;22.30;38.17
81937;BME280;71432;56.558;9.036;2024-01-16T00:09:49;100015.47;;;22.28;38.25
81937;BME280;71432;56.558;9.036;2024-01-16T00:12:17;100013.66;;;22.29;38.24
81937;BME280;71432;56.558;9.036;2024-01-16T00:14:43;100018.09;;;22.28;38.05
81937;BME280;71432;56.558;9.036;2024-01-16T00:17:08;100023.22;;;22.30;38.01
81937;BME280;71432;56.558;9.036;2024-01-16T00:19:35;100018.78;;;22.22;37.99
81937;BME280;71432;56.558;9.036;2024-01-16T00:22:00;100021.09;;;22.25;38.07
81937;BME280;71432;56.558;9.036;2024-01-16T00:24:27;100005.94;;;22.19;38.26
81937;BME280;71432;56.558;9.036;2024-01-16T00:26:53;100014.16;;;22.24;38.11
81937;BME280;71432;56.558;9.036;2024-01-16T00:29:18;100002.94;;;22.22;37.92
81937;BME280;71432;56.558;9.036;2024-01-16T00:31:43;100017.94;;;22.30;37.78
81937;BME280;71432;56.558;9.036;2024-01-16T00:34:09;100011.84;;;22.29;38.01
81937;BME280;71432;56.558;9.036;2024-01-16T00:36:34;99989.97;;;22.12;38.11
81937;BME280;71432;56.558;9.036;2024-01-16T00:38:59;100002.50;;;22.18;38.04
81937;BME280;71432;56.558;9.036;2024-01-16T00:41:25;100007.59;;;22.20;38.13
81937;BME280;71432;56.558;9.036;2024-01-16T00:43:50;100017.28;;;22.28;38.03
81937;BME280;71432;56.558;9.036;2024-01-16T00:46:15;100014.78;;;22.26;37.99
81937;BME280;71432;56.558;9.036;2024-01-16T00:48:41;100029.81;;;22.26;37.97
81937;BME280;71432;56.558;9.036;2024-01-16T00:51:06;100032.63;;;22.24;38.10
81937;BME280;71432;56.558;9.036;2024-01-16T00:53:32;100026.06;;;22.20;37.92
81937;BME280;71432;56.558;9.036;2024-01-16T00:55:57;100029.50;;;22.21;37.93
81937;BME280;71432;56.558;9.036;2024-01-16T00:58:23;100016.19;;;22.14;38.09
81937;BME280;71432;56.558;9.036;2024-01-16T01:00:49;100028.03;;;22.18;38.04
81937;BME280;71432;56.558;9.036;2024-01-16T01:03:14;100030.34;;;22.13;38.02
81937;BME280;71432;56.558;9.036;2024-01-16T01:05:39;100009.97;;;22.07;38.31
81937;BME280;71432;56.558;9.036;2024-01-16T01:08:05;100036.63;;;22.12;38.12
81937;BME280;71432;56.558;9.036;2024-01-16T01:10:30;100021.16;;;22.09;37.92
81937;BME280;71432;56.558;9.036;2024-01-16T01:12:56;100025.44;;;22.10;38.08
81937;BME280;71432;56.558;9.036;2024-01-16T01:15:21;100036.31;;;22.07;38.25
81937;BME280;71432;56.558;9.036;2024-01-16T01:17:48;100033.69;;;22.07;38.09
81937;BME280;71432;56.558;9.036;2024-01-16T01:20:14;100035.66;;;22.05;38.10
81937;BME280;71432;56.558;9.036;2024-01-16T01:22:40;100042.75;;;22.04;38.07
81937;BME280;71432;56.558;9.036;2024-01-16T01:25:06;100042.13;;;22.02;38.31
81937;BME280;71432;56.558;9.036;2024-01-16T01:27:32;100038.66;;;22.02;38.28
81937;BME280;71432;56.558;9.036;2024-01-16T01:29:57;100038.66;;;22.02;38.20
81937;BME280;71432;56.558;9.036;2024-01-16T01:32:23;100032.25;;;21.96;38.28
81937;BME280;71432;56.558;9.036;2024-01-16T01:34:48;100043.72;;;22.03;38.07
81937;BME280;71432;56.558;9.036;2024-01-16T01:37:14;100056.91;;;22.03;38.25
81937;BME280;71432;56.558;9.036;2024-01-16T01:42:05;100063.00;;;22.04;37.95
81937;BME280;71432;56.558;9.036;2024-01-16T01:44:30;100059.75;;;22.02;38.04
81937;BME280;71432;56.558;9.036;2024-01-16T01:49:21;100066.00;;;22.01;38.16
81937;BME280;71432;56.558;9.036;2024-01-16T01:51:48;100070.09;;;22.03;38.25
81937;BME280;71432;56.558;9.036;2024-01-16T01:54:14;100054.00;;;21.98;38.18
81937;BME280;71432;56.558;9.036;2024-01-16T01:56:44;100064.03;;;22.03;38.18
81937;BME280;71432;56.558;9.036;2024-01-16T01:59:12;100063.34;;;22.01;37.97
81937;BME280;71432;56.558;9.036;2024-01-16T02:01:39;100045.75;;;21.85;38.21
81937;BME280;71432;56.558;9.036;2024-01-16T02:04:06;100063.50;;;21.99;37.84
81937;BME280;71432;56.558;9.036;2024-01-16T02:06:32;100065.69;;;21.96;37.93
81937;BME280;71432;56.558;9.036;2024-01-16T02:08:58;100059.91;;;21.92;37.95
81937;BME280;71432;56.558;9.036;2024-01-16T02:11:24;100073.94;;;21.93;38.02
81937;BME280;71432;56.558;9.036;2024-01-16T02:13:49;100073.41;;;21.89;38.08
81937;BME280;71432;56.558;9.036;2024-01-16T02:16:22;100078.50;;;21.91;38.29
81937;BME280;71432;56.558;9.036;2024-01-16T02:18:49;100075.22;;;21.89;38.14
81937;BME280;71432;56.558;9.036;2024-01-16T02:21:22;100083.97;;;21.89;38.27
81937;BME280;71432;56.558;9.036;2024-01-16T02:23:51;100083.97;;;21.89;38.21
81937;BME280;71432;56.558;9.036;2024-01-16T02:26:17;100082.13;;;21.90;38.22
81937;BME280;71432;56.558;9.036;2024-01-16T02:28:43;100077.34;;;21.85;38.06
81937;BME280;71432;56.558;9.036;2024-01-16T02:31:08;100083.44;;;21.86;38.33
81937;BME280;71432;56.558;9.036;2024-01-16T02:33:33;100096.63;;;21.86;38.37
81937;BME280;71432;56.558;9.036;2024-01-16T02:35:59;100105.34;;;21.86;38.46
81937;BME280;71432;56.558;9.036;2024-01-16T02:38:24;100070.31;;;21.69;38.47
81937;BME280;71432;56.558;9.036;2024-01-16T02:40:50;100088.09;;;21.76;37.98
81937;BME280;71432;56.558;9.036;2024-01-16T02:43:15;100099.94;;;21.88;38.10
81937;BME280;71432;56.558;9.036;2024-01-16T02:45:41;100108.81;;;21.87;38.17
81937;BME280;71432;56.558;9.036;2024-01-16T02:48:07;100091.38;;;21.78;38.22
81937;BME280;71432;56.558;9.036;2024-01-16T02:50:32;100095.31;;;21.82;38.02
81937;BME280;71432;56.558;9.036;2024-01-16T02:52:58;100098.28;;;21.87;38.10
81937;BME280;71432;56.558;9.036;2024-01-16T02:55:23;100108.81;;;21.87;38.22
81937;BME280;71432;56.558;9.036;2024-01-16T02:57:49;100100.28;;;21.85;38.06
81937;BME280;71432;56.558;9.036;2024-01-16T03:00:15;100103.72;;;21.85;37.88
81937;BME280;71432;56.558;9.036;2024-01-16T03:02:41;100111.47;;;21.87;37.97
81937;BME280;71432;56.558;9.036;2024-01-16T03:05:06;100110.63;;;21.86;38.19
81937;BME280;71432;56.558;9.036;2024-01-16T03:07:32;100102.25;;;21.83;38.20
81937;BME280;71432;56.558;9.036;2024-01-16T03:09:57;100114.09;;;21.87;38.31
81937;BME280;71432;56.558;9.036;2024-01-16T03:12:23;100109.00;;;21.77;38.21
81937;BME280;71432;56.558;9.036;2024-01-16T03:14:48;100094.38;;;21.74;38.09
81937;BME280;71432;56.558;9.036;2024-01-16T03:17:14;100116.75;;;21.79;38.11
81937;BME280;71432;56.558;9.036;2024-01-16T03:19:39;100102.41;;;21.73;38.38
81937;BME280;71432;56.558;9.036;2024-01-16T03:22:05;100115.91;;;21.78;38.33
81937;BME280;71432;56.558;9.036;2024-01-16T03:24:30;100110.81;;;21.77;38.16
81937;BME280;71432;56.558;9.036;2024-01-16T03:26:56;100100.44;;;21.67;38.39
81937;BME280;71432;56.558;9.036;2024-01-16T03:29:21;100103.59;;;21.70;38.49
81937;BME280;71432;56.558;9.036;2024-01-16T03:31:46;100110.31;;;21.73;38.15
81937;BME280;71432;56.558;9.036;2024-01-16T03:34:13;100112.31;;;21.71;38.45
81937;BME280;71432;56.558;9.036;2024-01-16T03:36:38;100104.56;;;21.69;38.51
81937;BME280;71432;56.558;9.036;2024-01-16T03:39:03;100106.03;;;21.72;38.30
81937;BME280;71432;56.558;9.036;2024-01-16T03:41:29;100100.97;;;21.70;38.41
81937;BME280;71432;56.558;9.036;2024-01-16T03:43:54;100078.25;;;21.61;38.46
81937;BME280;71432;56.558;9.036;2024-01-16T03:46:22;100089.59;;;21.70;38.41
81937;BME280;71432;56.558;9.036;2024-01-16T03:48:47;100085.31;;;21.69;38.55
81937;BME280;71432;56.558;9.036;2024-01-16T03:51:13;100076.56;;;21.68;38.45
81937;BME280;71432;56.558;9.036;2024-01-16T03:53:41;100060.28;;;21.65;38.15
81937;BME280;71432;56.558;9.036;2024-01-16T03:56:06;100068.34;;;21.71;38.16
81937;BME280;71432;56.558;9.036;2024-01-16T03:58:33;100067.69;;;21.69;38.11
81937;BME280;71432;56.558;9.036;2024-01-16T04:00:58;100071.97;;;21.70;38.36
81937;BME280;71432;56.558;9.036;2024-01-16T04:03:24;100080.53;;;21.72;38.16
81937;BME280;71432;56.558;9.036;2024-01-16T04:05:49;100095.81;;;21.77;38.32
81937;BME280;71432;56.558;9.036;2024-01-16T04:08:15;100086.63;;;21.73;38.13
81937;BME280;71432;56.558;9.036;2024-01-16T04:10:40;100088.78;;;21.69;38.29
81937;BME280;71432;56.558;9.036;2024-01-16T04:13:07;100097.63;;;21.77;38.09
81937;BME280;71432;56.558;9.036;2024-01-16T04:15:32;100093.06;;;21.70;38.14
81937;BME280;71432;56.558;9.036;2024-01-16T04:17:59;100096.50;;;21.71;38.23
81937;BME280;71432;56.558;9.036;2024-01-16T04:20:24;100099.16;;;21.71;37.99
81937;BME280;71432;56.558;9.036;2024-01-16T04:22:49;100086.16;;;21.61;38.08
81937;BME280;71432;56.558;9.036;2024-01-16T04:25:15;100088.09;;;21.67;38.23
81937;BME280;71432;56.558;9.036;2024-01-16T04:27:40;100093.56;;;21.66;38.25
81937;BME280;71432;56.558;9.036;2024-01-16T04:30:06;100088.59;;;21.63;38.21
81937;BME280;71432;56.558;9.036;2024-01-16T04:32:32;100101.47;;;21.66;38.11
81937;BME280;71432;56.558;9.036;2024-01-16T04:34:57;100082.72;;;21.53;38.12
81937;BME280;71432;56.558;9.036;2024-01-16T04:37:23;100101.78;;;21.63;38.27
81937;BME280;71432;56.558;9.036;2024-01-16T04:39:49;100101.97;;;21.61;38.25
81937;BME280;71432;56.558;9.036;2024-01-16T04:42:14;100098.66;;;21.59;38.26
81937;BME280;71432;56.558;9.036;2024-01-16T04:44:39;100067.91;;;21.44;38.23
81937;BME280;71432;56.558;9.036;2024-01-16T04:47:05;100078.44;;;21.52;38.32
81937;BME280;71432;56.558;9.036;2024-01-16T04:49:30;100094.56;;;21.57;38.44
81937;BME280;71432;56.558;9.036;2024-01-16T04:51:56;100081.38;;;21.49;38.17
81937;BME280;71432;56.558;9.036;2024-01-16T04:54:21;100073.16;;;21.44;38.23
81937;BME280;71432;56.558;9.036;2024-01-16T04:56:46;100079.56;;;21.49;38.29
81937;BME280;71432;56.558;9.036;2024-01-16T04:59:12;100082.38;;;21.48;38.15
81937;BME280;71432;56.558;9.036;2024-01-16T05:01:37;100095.19;;;21.59;38.18
81937;BME280;71432;56.558;9.036;2024-01-16T05:04:02;100093.72;;;21.56;38.41
81937;BME280;71432;56.558;9.036;2024-01-16T05:06:29;100089.94;;;21.59;38.27
81937;BME280;71432;56.558;9.036;2024-01-16T05:08:55;100086.66;;;21.57;38.30
81937;BME280;71432;56.558;9.036;2024-01-16T05:11:20;100097.66;;;21.60;38.27
81937;BME280;71432;56.558;9.036;2024-01-16T05:13:45;100100.66;;;21.57;38.28
81937;BME280;71432;56.558;9.036;2024-01-16T05:16:11;100098.00;;;21.57;38.50
81937;BME280;71432;56.558;9.036;2024-01-16T05:18:36;100110.50;;;21.63;38.57
81937;BME280;71432;56.558;9.036;2024-01-16T05:21:01;100098.50;;;21.61;38.32
81937;BME280;71432;56.558;9.036;2024-01-16T05:23:29;100101.13;;;21.61;38.19
81937;BME280;71432;56.558;9.036;2024-01-16T05:25:55;100105.22;;;21.63;38.37
81937;BME280;71432;56.558;9.036;2024-01-16T05:28:20;100110.34;;;21.65;38.54
81937;BME280;71432;56.558;9.036;2024-01-16T05:30:46;100102.59;;;21.63;38.42
81937;BME280;71432;56.558;9.036;2024-01-16T05:33:11;100106.22;;;21.62;38.62
81937;BME280;71432;56.558;9.036;2024-01-16T05:35:36;100099.16;;;21.55;38.68
81937;BME280;71432;56.558;9.036;2024-01-16T05:38:02;100105.25;;;21.55;38.88
81937;BME280;71432;56.558;9.036;2024-01-16T05:40:29;100088.16;;;21.43;38.86
81937;BME280;71432;56.558;9.036;2024-01-16T05:42:54;100115.13;;;21.61;38.63
81937;BME280;71432;56.558;9.036;2024-01-16T05:45:20;100101.63;;;21.56;39.22
81937;BME280;71432;56.558;9.036;2024-01-16T05:47:46;100104.06;;;21.58;39.46
81937;BME280;71432;56.558;9.036;2024-01-16T05:50:11;100109.84;;;21.61;39.25
81937;BME280;71432;56.558;9.036;2024-01-16T05:52:36;100100.31;;;21.60;39.18
81937;BME280;71432;56.558;9.036;2024-01-16T05:55:03;100089.44;;;21.55;39.46
81937;BME280;71432;56.558;9.036;2024-01-16T05:57:29;100086.66;;;21.57;39.41
81937;BME280;71432;56.558;9.036;2024-01-16T05:59:57;100089.63;;;21.62;39.90
81937;BME280;71432;56.558;9.036;2024-01-16T06:02:23;100087.78;;;21.62;39.82
81937;BME280;71432;56.558;9.036;2024-01-16T06:04:48;100079.06;;;21.62;39.67
81937;BME280;71432;56.558;9.036;2024-01-16T06:07:13;100071.50;;;21.51;39.27
81937;BME280;71432;56.558;9.036;2024-01-16T06:09:39;100053.91;;;21.43;39.43
81937;BME280;71432;56.558;9.036;2024-01-16T06:12:07;100080.88;;;21.53;39.48
81937;BME280;71432;56.558;9.036;2024-01-16T06:14:33;100064.59;;;21.50;39.27
81937;BME280;71432;56.558;9.036;2024-01-16T06:16:59;100085.00;;;21.56;39.30
81937;BME280;71432;56.558;9.036;2024-01-16T06:19:25;100076.94;;;21.57;39.13
81937;BME280;71432;56.558;9.036;2024-01-16T06:21:50;100073.31;;;21.50;39.88
81937;BME280;71432;56.558;9.036;2024-01-16T06:24:15;100075.28;;;21.56;39.77
81937;BME280;71432;56.558;9.036;2024-01-16T06:26:41;100073.31;;;21.50;39.19
81937;BME280;71432;56.558;9.036;2024-01-16T06:29:07;100077.75;;;21.58;39.23
81937;BME280;71432;56.558;9.036;2024-01-16T06:31:33;100072.97;;;21.53;39.27
81937;BME280;71432;56.558;9.036;2024-01-16T06:33:58;100090.75;;;21.59;39.33
81937;BME280;71432;56.558;9.036;2024-01-16T06:36:23;100077.44;;;21.53;39.18
81937;BME280;71432;56.558;9.036;2024-01-16T06:38:49;100096.84;;;21.60;38.93
81937;BME280;71432;56.558;9.036;2024-01-16T06:41:14;100102.47;;;21.57;39.14
81937;BME280;71432;56.558;9.036;2024-01-16T06:43:39;100100.47;;;21.59;37.99
81937;BME280;71432;56.558;9.036;2024-01-16T06:46:04;100095.88;;;21.61;37.60
81937;BME280;71432;56.558;9.036;2024-01-16T06:48:30;100096.34;;;21.64;38.12
81937;BME280;71432;56.558;9.036;2024-01-16T06:50:56;100085.47;;;21.67;38.16
81937;BME280;71432;56.558;9.036;2024-01-16T06:53:21;100093.06;;;21.70;38.34
81937;BME280;71432;56.558;9.036;2024-01-16T06:55:48;100095.84;;;21.69;37.91
81937;BME280;71432;56.558;9.036;2024-01-16T06:58:13;100101.94;;;21.69;38.44
81937;BME280;71432;56.558;9.036;2024-01-16T07:00:38;100107.22;;;21.69;38.39
81937;BME280;71432;56.558;9.036;2024-01-16T07:03:06;100116.56;;;21.72;38.37
81937;BME280;71432;56.558;9.036;2024-01-16T07:05:32;100096.50;;;21.63;37.91
81937;BME280;71432;56.558;9.036;2024-01-16T07:07:57;100116.06;;;21.77;38.29
81937;BME280;71432;56.558;9.036;2024-01-16T07:10:23;100117.72;;;21.78;38.41
81937;BME280;71432;56.558;9.036;2024-01-16T07:12:49;100103.91;;;21.59;38.37
81937;BME280;71432;56.558;9.036;2024-01-16T07:15:16;100124.16;;;21.75;38.25
81937;BME280;71432;56.558;9.036;2024-01-16T07:17:41;100136.66;;;21.73;38.34
81937;BME280;71432;56.558;9.036;2024-01-16T07:20:07;100132.72;;;21.69;38.09
81937;BME280;71432;56.558;9.036;2024-01-16T07:22:33;100126.81;;;21.59;38.02
81937;BME280;71432;56.558;9.036;2024-01-16T07:25:01;100147.56;;;21.70;38.25
81937;BME280;71432;56.558;9.036;2024-01-16T07:27:26;100142.78;;;21.73;38.42
81937;BME280;71432;56.558;9.036;2024-01-16T07:29:52;100157.41;;;21.76;38.27
81937;BME280;71432;56.558;9.036;2024-01-16T07:32:17;100158.06;;;21.78;38.33
81937;BME280;71432;56.558;9.036;2024-01-16T07:34:42;100157.25;;;21.78;38.16
81937;BME280;71432;56.558;9.036;2024-01-16T07:37:08;100150.00;;;21.71;38.19
81937;BME280;71432;56.558;9.036;2024-01-16T07:39:33;100167.44;;;21.81;38.06
81937;BME280;71432;56.558;9.036;2024-01-16T07:41:59;100159.22;;;21.84;38.19
81937;BME280;71432;56.558;9.036;2024-01-16T07:44:24;100149.69;;;21.74;38.38
81937;BME280;71432;56.558;9.036;2024-01-16T07:46:49;100158.75;;;21.80;38.22
81937;BME280;71432;56.558;9.036;2024-01-16T07:49:15;100166.63;;;21.88;38.23
81937;BME280;71432;56.558;9.036;2024-01-16T07:51:41;100156.56;;;21.92;38.26
81937;BME280;71432;56.558;9.036;2024-01-16T07:54:08;100151.00;;;21.95;38.18
81937;BME280;71432;56.558;9.036;2024-01-16T07:56:34;100147.53;;;21.94;38.27
81937;BME280;71432;56.558;9.036;2024-01-16T07:59:00;100141.94;;;21.97;38.29
81937;BME280;71432;56.558;9.036;2024-01-16T08:01:29;100139.94;;;21.99;38.10
81937;BME280;71432;56.558;9.036;2024-01-16T08:03:55;100129.91;;;21.95;38.10
81937;BME280;71432;56.558;9.036;2024-01-16T08:06:21;100142.44;;;22.01;37.97
81937;BME280;71432;56.558;9.036;2024-01-16T08:08:47;100149.34;;;22.02;38.07
81937;BME280;71432;56.558;9.036;2024-01-16T08:11:14;100127.75;;;21.90;38.02
81937;BME280;71432;56.558;9.036;2024-01-16T08:13:39;100151.00;;;22.03;38.11
81937;BME280;71432;56.558;9.036;2024-01-16T08:16:05;100147.53;;;22.02;38.05
81937;BME280;71432;56.558;9.036;2024-01-16T08:18:30;100149.34;;;22.02;38.12
81937;BME280;71432;56.558;9.036;2024-01-16T08:20:56;100129.28;;;21.93;37.76
81937;BME280;71432;56.558;9.036;2024-01-16T08:23:22;100134.88;;;21.98;37.79
81937;BME280;71432;56.558;9.036;2024-01-16T08:25:47;100136.16;;;22.02;37.96
81937;BME280;71432;56.558;9.036;2024-01-16T08:28:13;100134.03;;;21.97;38.10
81937;BME280;71432;56.558;9.036;2024-01-16T08:30:39;100138.81;;;22.02;37.80
81937;BME280;71432;56.558;9.036;2024-01-16T08:33:06;100151.28;;;22.08;38.05
81937;BME280;71432;56.558;9.036;2024-01-16T08:35:32;100150.19;;;22.02;37.86
81937;BME280;71432;56.558;9.036;2024-01-16T08:37:57;100156.75;;;22.06;38.08
81937;BME280;71432;56.558;9.036;2024-01-16T08:40:23;100154.25;;;22.13;37.93
81937;BME280;71432;56.558;9.036;2024-01-16T08:42:48;100156.72;;;22.14;37.88
81937;BME280;71432;56.558;9.036;2024-01-16T08:45:19;100144.84;;;22.18;38.00
81937;BME280;71432;56.558;9.036;2024-01-16T08:47:45;100128.41;;;22.08;37.95
81937;BME280;71432;56.558;9.036;2024-01-16T08:50:10;100141.88;;;22.22;37.80
81937;BME280;71432;56.558;9.036;2024-01-16T08:52:35;100149.63;;;22.23;37.94
81937;BME280;71432;56.558;9.036;2024-01-16T08:55:01;100149.47;;;22.25;38.33
81937;BME280;71432;56.558;9.036;2024-01-16T08:57:26;100146.00;;;22.24;38.10
81937;BME280;71432;56.558;9.036;2024-01-16T08:59:52;100122.81;;;22.11;38.38
81937;BME280;71432;56.558;9.036;2024-01-16T09:02:18;100136.91;;;22.27;38.19
81937;BME280;71432;56.558;9.036;2024-01-16T09:04:43;100144.81;;;22.27;38.20
81937;BME280;71432;56.558;9.036;2024-01-16T09:07:08;100143.00;;;22.27;38.25
81937;BME280;71432;56.558;9.036;2024-01-16T09:09:34;100140.22;;;22.29;38.29
81937;BME280;71432;56.558;9.036;2024-01-16T09:11:59;100138.72;;;22.34;38.03
81937;BME280;71432;56.558;9.036;2024-01-16T09:14:25;100138.72;;;22.34;38.36
81937;BME280;71432;56.558;9.036;2024-01-16T09:16:50;100142.34;;;22.33;38.44
81937;BME280;71432;56.558;9.036;2024-01-16T09:19:16;100120.97;;;22.20;38.32
81937;BME280;71432;56.558;9.036;2024-01-16T09:21:41;100149.06;;;22.36;38.22
81937;BME280;71432;56.558;9.036;2024-01-16T09:24:07;100137.91;;;22.34;38.54
81937;BME280;71432;56.558;9.036;2024-01-16T09:26:32;100112.22;;;22.20;38.54
81937;BME280;71432;56.558;9.036;2024-01-16T09:28:58;100129.84;;;22.58;38.85
81937;BME280;71432;56.558;9.036;2024-01-16T09:31:23;100128.38;;;23.17;37.76
81937;BME280;71432;56.558;9.036;2024-01-16T09:33:48;100137.50;;;23.37;37.77
81937;BME280;71432;56.558;9.036;2024-01-16T09:36:14;100130.66;;;22.67;38.50
81937;BME280;71432;56.558;9.036;2024-01-16T09:38:39;100127.47;;;22.48;38.57
81937;BME280;71432;56.558;9.036;2024-01-16T09:41:04;100130.78;;;22.42;38.61
81937;BME280;71432;56.558;9.036;2024-01-16T09:43:31;100121.38;;;22.40;38.83
81937;BME280;71432;56.558;9.036;2024-01-16T09:46:00;100112.03;;;22.29;38.76
81937;BME280;71432;56.558;9.036;2024-01-16T09:48:28;100126.53;;;22.33;39.06
81937;BME280;71432;56.558;9.036;2024-01-16T09:50:54;100117.47;;;22.28;38.87
81937;BME280;71432;56.558;9.036;2024-01-16T09:53:20;100118.59;;;22.33;39.05
81937;BME280;71432;56.558;9.036;2024-01-16T09:55:47;100112.03;;;22.29;38.98
81937;BME280;71432;56.558;9.036;2024-01-16T09:58:13;100113.38;;;22.25;38.40
81937;BME280;71432;56.558;9.036;2024-01-16T10:00:42;100115.19;;;22.25;38.17
81937;BME280;71432;56.558;9.036;2024-01-16T10:03:11;100121.44;;;22.24;38.00
81937;BME280;71432;56.558;9.036;2024-01-16T10:05:39;100122.63;;;22.21;38.24
81937;BME280;71432;56.558;9.036;2024-01-16T10:08:05;100118.31;;;22.20;38.16
81937;BME280;71432;56.558;9.036;2024-01-16T10:10:31;100118.97;;;22.22;38.02
81937;BME280;71432;56.558;9.036;2024-01-16T10:12:57;100118.13;;;22.22;38.07
81937;BME280;71432;56.558;9.036;2024-01-16T10:15:23;100109.75;;;22.18;37.77
81937;BME280;71432;56.558;9.036;2024-01-16T10:17:48;100108.75;;;22.19;37.75
81937;BME280;71432;56.558;9.036;2024-01-16T10:20:13;100081.44;;;22.12;37.85
81937;BME280;71432;56.558;9.036;2024-01-16T10:26:10;100096.41;;;22.20;37.68
81937;BME280;71432;56.558;9.036;2024-01-16T10:28:41;100102.81;;;22.17;37.42
81937;BME280;71432;56.558;9.036;2024-01-16T10:31:11;100101.84;;;22.18;37.69
81937;BME280;71432;56.558;9.036;2024-01-16T10:33:39;100101.84;;;22.18;37.31
81937;BME280;71432;56.558;9.036;2024-01-16T10:36:11;100103.66;;;22.17;37.63
81937;BME280;71432;56.558;9.036;2024-01-16T10:38:42;100091.66;;;22.15;37.51
81937;BME280;71432;56.558;9.036;2024-01-16T10:41:16;100093.09;;;22.17;37.42
81937;BME280;71432;56.558;9.036;2024-01-16T10:44:19;100095.44;;;22.21;37.33
81937;BME280;71432;56.558;9.036;2024-01-16T10:46:44;100085.19;;;22.17;37.29
81937;BME280;71432;56.558;9.036;2024-01-16T10:49:09;100077.66;;;22.14;37.26
81937;BME280;71432;56.558;9.036;2024-01-16T10:51:34;100088.66;;;22.18;37.38
81937;BME280;71432;56.558;9.036;2024-01-16T10:54:01;100084.22;;;22.18;37.33
81937;BME280;71432;56.558;9.036;2024-01-16T10:56:28;100085.03;;;22.19;37.55
81937;BME280;71432;56.558;9.036;2024-01-16T10:59:45;100067.97;;;22.07;37.31
81937;BME280;71432;56.558;9.036;2024-01-16T11:01:53;100075.84;;;22.15;37.61
81937;BME280;71432;56.558;9.036;2024-01-16T11:04:20;100088.19;;;22.14;37.34
81937;BME280;71432;56.558;9.036;2024-01-16T11:06:47;100079.44;;;22.14;37.50
81937;BME280;71432;56.558;9.036;2024-01-16T11:09:12;100076.47;;;22.17;37.23
81937;BME280;71432;56.558;9.036;2024-01-16T11:11:40;100071.53;;;22.14;37.44
81937;BME280;71432;56.558;9.036;2024-01-16T11:14:06;100071.19;;;22.17;37.66
81937;BME280;71432;56.558;9.036;2024-01-16T11:16:32;100067.91;;;22.15;37.29
81937;BME280;71432;56.558;9.036;2024-01-16T11:18:58;100067.91;;;22.15;37.48
81937;BME280;71432;56.558;9.036;2024-01-16T11:21:23;100057.38;;;22.15;37.47
81937;BME280;71432;56.558;9.036;2024-01-16T11:23:50;100061.31;;;22.19;37.24
81937;BME280;71432;56.558;9.036;2024-01-16T11:26:33;100055.22;;;22.18;37.25
81937;BME280;71432;56.558;9.036;2024-01-16T11:29:00;100060.66;;;22.17;37.47
81937;BME280;71432;56.558;9.036;2024-01-16T11:31:29;100041.72;;;22.13;37.54
81937;BME280;71432;56.558;9.036;2024-01-16T11:33:55;100032.81;;;22.14;37.56
81937;BME280;71432;56.558;9.036;2024-01-16T11:36:43;100042.03;;;22.18;37.39
81937;BME280;71432;56.558;9.036;2024-01-16T11:39:11;100039.22;;;22.20;37.24
81937;BME280;71432;56.558;9.036;2024-01-16T11:47:08;100036.41;;;22.22;37.37
81937;BME280;71432;56.558;9.036;2024-01-16T11:49:35;100033.09;;;22.28;37.42
81937;BME280;71432;56.558;9.036;2024-01-16T11:52:00;100015.97;;;22.24;37.23
81937;BME280;71432;56.558;9.036;2024-01-16T11:54:25;100027.78;;;22.36;37.57
81937;BME280;71432;56.558;9.036;2024-01-16T12:00:03;100018.66;;;22.46;37.22
81937;BME280;71432;56.558;9.036;2024-01-16T12:02:56;100014.19;;;22.47;37.23
81937;BME280;71432;56.558;9.036;2024-01-16T12:05:21;100012.56;;;22.46;37.25
81937;BME280;71432;56.558;9.036;2024-01-16T12:07:51;100002.22;;;22.36;37.26
81937;BME280;71432;56.558;9.036;2024-01-16T12:10:18;100009.44;;;22.42;37.01
81937;BME280;71432;56.558;9.036;2024-01-16T12:12:45;100009.28;;;22.44;37.16
81937;BME280;71432;56.558;9.036;2024-01-16T12:15:18;100000.34;;;22.45;36.96
81937;BME280;71432;56.558;9.036;2024-01-16T12:18:02;100003.34;;;22.42;37.19
81937;BME280;71432;56.558;9.036;2024-01-16T12:20:33;100005.16;;;22.41;37.17
81937;BME280;71432;56.558;9.036;2024-01-16T12:23:03;100004.63;;;22.46;37.23
81937;BME280;71432;56.558;9.036;2024-01-16T12:25:30;99988.19;;;22.44;37.07
81937;BME280;71432;56.558;9.036;2024-01-16T12:28:00;99981.72;;;22.46;37.06
81937;BME280;71432;56.558;9.036;2024-01-16T12:30:27;99982.72;;;22.45;37.06
81937;BME280;71432;56.558;9.036;2024-01-16T12:35:36;99966.44;;;22.42;36.86
81937;BME280;71432;56.558;9.036;2024-01-16T12:38:04;99979.75;;;22.48;36.79
81937;BME280;71432;56.558;9.036;2024-01-16T12:43:03;99972.09;;;22.53;36.85
81937;BME280;71432;56.558;9.036;2024-01-16T12:45:28;99961.38;;;22.55;36.75
81937;BME280;71432;56.558;9.036;2024-01-16T12:47:54;99962.06;;;22.49;36.86
81937;BME280;71432;56.558;9.036;2024-01-16T12:50:24;99946.25;;;22.49;36.78
81937;BME280;71432;56.558;9.036;2024-01-16T12:53:00;99949.38;;;22.52;36.83
81937;BME280;71432;56.558;9.036;2024-01-16T12:55:26;99956.28;;;22.53;36.44
81937;BME280;71432;56.558;9.036;2024-01-16T12:58:24;99950.00;;;22.54;36.66
81937;BME280;71432;56.558;9.036;2024-01-16T13:00:51;99946.75;;;22.52;36.56
81937;BME280;71432;56.558;9.036;2024-01-16T13:03:21;99948.56;;;22.52;36.59
81937;BME280;71432;56.558;9.036;2024-01-16T13:05:59;99925.41;;;22.39;36.89
81937;BME280;71432;56.558;9.036;2024-01-16T13:08:26;99929.81;;;22.47;36.72